Aérodrome :
LOGIN :

S'inscrire | Disclaimer

   EN    FR    IT 

 










Légende :    VFR   VFR Marginal   IFR   IFR Intensif   IFR Très Intensif
Visi : 
Plafond : 
>= 8 km
>= 3000ft
5 à 8 km
1000 à 3000 ft
1500m à 5 km
500 à 1000 ft
800 à 1500m
200 à 500 ft
< 800m
< 200 ft
Symboles :   Orages  Brouillard  Fortes neiges  Fortes précipitations  Vent > 20 kt
SIGMETs :   Divers  Orages  Givrage  Turbulence  Onde Orograph.  Cendres Volcan.







- Altitude de l'aérodrome : 479 ft
- Code IATA : DOL
- Voir les cartes d'approche


LFRG - Deauville

DERNIER METAR :
  • 240000Z AUTO 03003KT 3900 BR BKN006 OVC034 09/08 Q1029

METARs EXPIRÉS :
  • 232330Z AUTO 02003KT 3900 BR BKN006 OVC038 09/08 Q1030
  • 232300Z AUTO 04004KT 010V070 3900 BR FEW006 OVC038 09/08 Q1030
  • 232230Z AUTO 05004KT 020V090 4300 BR OVC038 09/08 Q1030
  • 232200Z AUTO 05004KT 010V080 5000 BR OVC039 09/07 Q1030
  • 232130Z AUTO 04004KT 5000 BR OVC037 09/07 Q1030

Prévision TAF périmée.
ATIS : +33 2 31 65 65 36
Pas de NOTAMs connus pour ce terrain.



MET'MAP, la Météo Aéronautique d'un coup d'oeil ! - Copyright ORBIFLY Décembre 2007 - Disclaimer

ORBIFLY MET'MAP TEAM :

Programmation & Développement : Alexandra Zaïnal
Conception & Développement : Baudouin d'Aumeries
Co-Programmation & Développement : Marc-Olivier Méhu
Soutien technique & logistique : Manuel Goepfert

Contact : metmap@orbifly.com




SOURCES & CREDITS :

   NOAA